NO-0005 weather

CLOSED Lindøye Seaplane Base
Oslo, Oslo, Norway

Public forecast

Using degrees Celsius for public forecast. Weather courtesy of forecast.io.

Closest aviation weather report (METAR) to Lindøye Seaplane Base

Closest report is Oslo, Fornebu Airport, 3.1 nm (5.7 km) W. Retrieved 2020/07/07 02:20 UTC (25 minutes ago):

ENFB 070220Z AUTO 32016KT 9999NDV SCT025/// 09/04 Q1006 W///S4

Closest aviation forecast (TAF) to Lindøye Seaplane Base

Forecast is more than 6 hours old.

Closest forecast is Oslo Gardermoen Airport, 21.5 nm (39.8 km) NNE. Retrieved 2020/07/06 18:59 UTC (8 hours ago):

TAF ENGM 061700Z 0618/0718 33008KT 9999 FEW040 BKN080 TEMPO 0710/0718 SHRA BKN020 SCT025CB PROB40 TEMPO 0711/0717 4000 TSRA